sensor_id;sensor_type;location;lat;lon;timestamp;P1;durP1;ratioP1;P2;durP2;ratioP2
46415;SDS011;32620;51.704;7.822;2023-10-19T00:00:13;19.85;;;13.65;;
46415;SDS011;32620;51.704;7.822;2023-10-19T00:02:48;22.02;;;13.70;;
46415;SDS011;32620;51.704;7.822;2023-10-19T00:05:16;19.85;;;13.90;;
46415;SDS011;32620;51.704;7.822;2023-10-19T00:07:42;22.92;;;15.00;;
46415;SDS011;32620;51.704;7.822;2023-10-19T00:10:08;28.13;;;14.90;;
46415;SDS011;32620;51.704;7.822;2023-10-19T00:12:34;25.42;;;15.50;;
46415;SDS011;32620;51.704;7.822;2023-10-19T00:15:01;26.45;;;16.02;;
46415;SDS011;32620;51.704;7.822;2023-10-19T00:17:29;24.23;;;15.95;;
46415;SDS011;32620;51.704;7.822;2023-10-19T00:19:55;26.88;;;16.50;;
46415;SDS011;32620;51.704;7.822;2023-10-19T00:22:41;26.95;;;16.75;;
46415;SDS011;32620;51.704;7.822;2023-10-19T00:25:06;28.90;;;18.05;;
46415;SDS011;32620;51.704;7.822;2023-10-19T00:27:34;28.08;;;18.10;;
46415;SDS011;32620;51.704;7.822;2023-10-19T00:29:59;29.88;;;18.38;;
46415;SDS011;32620;51.704;7.822;2023-10-19T00:32:31;30.77;;;19.35;;
46415;SDS011;32620;51.704;7.822;2023-10-19T00:34:57;31.50;;;18.98;;
46415;SDS011;32620;51.704;7.822;2023-10-19T00:37:29;27.95;;;17.98;;
46415;SDS011;32620;51.704;7.822;2023-10-19T00:39:57;36.28;;;20.17;;
46415;SDS011;32620;51.704;7.822;2023-10-19T00:42:39;29.73;;;19.58;;
46415;SDS011;32620;51.704;7.822;2023-10-19T00:45:10;29.98;;;19.25;;
46415;SDS011;32620;51.704;7.822;2023-10-19T00:47:38;31.88;;;19.33;;
46415;SDS011;32620;51.704;7.822;2023-10-19T00:50:05;33.15;;;20.40;;
46415;SDS011;32620;51.704;7.822;2023-10-19T00:52:37;34.03;;;20.15;;
46415;SDS011;32620;51.704;7.822;2023-10-19T00:55:09;34.97;;;20.77;;
46415;SDS011;32620;51.704;7.822;2023-10-19T00:57:37;39.40;;;21.38;;
46415;SDS011;32620;51.704;7.822;2023-10-19T01:00:07;44.17;;;22.48;;
46415;SDS011;32620;51.704;7.822;2023-10-19T01:02:37;38.90;;;23.10;;
46415;SDS011;32620;51.704;7.822;2023-10-19T01:05:11;41.75;;;24.00;;
46415;SDS011;32620;51.704;7.822;2023-10-19T01:07:38;41.60;;;23.58;;
46415;SDS011;32620;51.704;7.822;2023-10-19T01:10:05;38.97;;;22.90;;
46415;SDS011;32620;51.704;7.822;2023-10-19T01:12:33;42.05;;;23.67;;
46415;SDS011;32620;51.704;7.822;2023-10-19T01:17:44;40.42;;;23.23;;
46415;SDS011;32620;51.704;7.822;2023-10-19T01:20:18;40.45;;;23.50;;
46415;SDS011;32620;51.704;7.822;2023-10-19T01:23:03;40.25;;;22.50;;
46415;SDS011;32620;51.704;7.822;2023-10-19T01:25:51;42.47;;;23.13;;
46415;SDS011;32620;51.704;7.822;2023-10-19T01:28:31;43.72;;;23.58;;
46415;SDS011;32620;51.704;7.822;2023-10-19T01:31:08;44.65;;;24.27;;
46415;SDS011;32620;51.704;7.822;2023-10-19T01:33:41;46.67;;;24.42;;
46415;SDS011;32620;51.704;7.822;2023-10-19T01:36:09;41.03;;;24.00;;
46415;SDS011;32620;51.704;7.822;2023-10-19T01:38:35;46.00;;;25.08;;
46415;SDS011;32620;51.704;7.822;2023-10-19T01:41:01;45.40;;;25.25;;
46415;SDS011;32620;51.704;7.822;2023-10-19T01:43:33;45.72;;;26.58;;
46415;SDS011;32620;51.704;7.822;2023-10-19T01:45:59;46.90;;;25.05;;
46415;SDS011;32620;51.704;7.822;2023-10-19T01:48:30;47.72;;;24.77;;
46415;SDS011;32620;51.704;7.822;2023-10-19T01:50:58;43.42;;;25.20;;
46415;SDS011;32620;51.704;7.822;2023-10-19T02:00:17;45.35;;;25.08;;
46415;SDS011;32620;51.704;7.822;2023-10-19T02:02:47;47.03;;;25.30;;
46415;SDS011;32620;51.704;7.822;2023-10-19T02:05:13;47.17;;;25.67;;
46415;SDS011;32620;51.704;7.822;2023-10-19T02:07:40;47.00;;;26.30;;
46415;SDS011;32620;51.704;7.822;2023-10-19T02:10:06;47.38;;;25.75;;
46415;SDS011;32620;51.704;7.822;2023-10-19T02:12:35;50.22;;;26.15;;
46415;SDS011;32620;51.704;7.822;2023-10-19T02:15:01;46.80;;;26.42;;
46415;SDS011;32620;51.704;7.822;2023-10-19T02:17:29;44.60;;;24.92;;
46415;SDS011;32620;51.704;7.822;2023-10-19T02:19:55;49.15;;;26.05;;
46415;SDS011;32620;51.704;7.822;2023-10-19T02:22:21;44.58;;;24.10;;
46415;SDS011;32620;51.704;7.822;2023-10-19T02:24:47;47.22;;;25.45;;
46415;SDS011;32620;51.704;7.822;2023-10-19T02:27:12;47.67;;;24.92;;
46415;SDS011;32620;51.704;7.822;2023-10-19T02:29:38;46.13;;;24.48;;
46415;SDS011;32620;51.704;7.822;2023-10-19T02:32:03;47.65;;;24.52;;
46415;SDS011;32620;51.704;7.822;2023-10-19T02:34:30;42.97;;;23.42;;
46415;SDS011;32620;51.704;7.822;2023-10-19T02:36:56;42.28;;;23.20;;
46415;SDS011;32620;51.704;7.822;2023-10-19T02:39:21;46.67;;;24.67;;
46415;SDS011;32620;51.704;7.822;2023-10-19T02:41:53;42.20;;;23.30;;
46415;SDS011;32620;51.704;7.822;2023-10-19T02:44:20;41.92;;;23.92;;
46415;SDS011;32620;51.704;7.822;2023-10-19T02:46:48;40.47;;;22.80;;
46415;SDS011;32620;51.704;7.822;2023-10-19T02:49:16;43.83;;;25.17;;
46415;SDS011;32620;51.704;7.822;2023-10-19T02:51:45;47.38;;;25.73;;
46415;SDS011;32620;51.704;7.822;2023-10-19T02:54:13;44.47;;;24.98;;
46415;SDS011;32620;51.704;7.822;2023-10-19T02:56:57;44.35;;;25.27;;
46415;SDS011;32620;51.704;7.822;2023-10-19T02:59:24;42.67;;;24.65;;
46415;SDS011;32620;51.704;7.822;2023-10-19T03:01:51;43.10;;;24.10;;
46415;SDS011;32620;51.704;7.822;2023-10-19T03:04:19;46.72;;;24.15;;
46415;SDS011;32620;51.704;7.822;2023-10-19T03:06:45;47.50;;;24.77;;
46415;SDS011;32620;51.704;7.822;2023-10-19T03:09:10;39.97;;;22.65;;
46415;SDS011;32620;51.704;7.822;2023-10-19T03:12:03;42.38;;;23.10;;
46415;SDS011;32620;51.704;7.822;2023-10-19T03:14:29;41.80;;;22.98;;
46415;SDS011;32620;51.704;7.822;2023-10-19T03:16:56;43.17;;;24.17;;
46415;SDS011;32620;51.704;7.822;2023-10-19T03:19:22;43.75;;;23.77;;
46415;SDS011;32620;51.704;7.822;2023-10-19T03:21:50;45.47;;;23.27;;
46415;SDS011;32620;51.704;7.822;2023-10-19T03:24:16;43.35;;;22.30;;
46415;SDS011;32620;51.704;7.822;2023-10-19T03:27:03;38.30;;;20.85;;
46415;SDS011;32620;51.704;7.822;2023-10-19T03:29:50;35.80;;;22.23;;
46415;SDS011;32620;51.704;7.822;2023-10-19T03:32:21;36.83;;;21.58;;
46415;SDS011;32620;51.704;7.822;2023-10-19T03:34:51;35.33;;;20.33;;
46415;SDS011;32620;51.704;7.822;2023-10-19T03:37:20;38.85;;;22.63;;
46415;SDS011;32620;51.704;7.822;2023-10-19T03:39:47;42.08;;;22.45;;
46415;SDS011;32620;51.704;7.822;2023-10-19T03:42:13;34.20;;;19.00;;
46415;SDS011;32620;51.704;7.822;2023-10-19T03:44:39;33.20;;;21.50;;
46415;SDS011;32620;51.704;7.822;2023-10-19T03:47:24;35.50;;;20.55;;
46415;SDS011;32620;51.704;7.822;2023-10-19T03:49:52;39.60;;;20.42;;
46415;SDS011;32620;51.704;7.822;2023-10-19T03:52:18;37.20;;;21.85;;
46415;SDS011;32620;51.704;7.822;2023-10-19T03:54:55;37.20;;;19.92;;
46415;SDS011;32620;51.704;7.822;2023-10-19T03:57:22;32.10;;;18.92;;
46415;SDS011;32620;51.704;7.822;2023-10-19T03:59:49;30.95;;;18.98;;
46415;SDS011;32620;51.704;7.822;2023-10-19T04:02:15;32.30;;;19.17;;
46415;SDS011;32620;51.704;7.822;2023-10-19T04:04:43;34.65;;;19.88;;
46415;SDS011;32620;51.704;7.822;2023-10-19T04:07:09;37.28;;;20.15;;
46415;SDS011;32620;51.704;7.822;2023-10-19T04:09:45;30.67;;;18.95;;
46415;SDS011;32620;51.704;7.822;2023-10-19T04:12:22;30.90;;;18.75;;
46415;SDS011;32620;51.704;7.822;2023-10-19T04:14:49;31.33;;;19.55;;
46415;SDS011;32620;51.704;7.822;2023-10-19T04:17:15;27.20;;;17.67;;
46415;SDS011;32620;51.704;7.822;2023-10-19T04:19:41;32.58;;;19.15;;
46415;SDS011;32620;51.704;7.822;2023-10-19T04:22:06;26.23;;;16.10;;
46415;SDS011;32620;51.704;7.822;2023-10-19T04:24:36;24.80;;;16.88;;
46415;SDS011;32620;51.704;7.822;2023-10-19T04:27:01;28.52;;;18.58;;
46415;SDS011;32620;51.704;7.822;2023-10-19T04:29:27;25.95;;;16.88;;
46415;SDS011;32620;51.704;7.822;2023-10-19T04:31:52;27.02;;;16.13;;
46415;SDS011;32620;51.704;7.822;2023-10-19T04:34:20;21.42;;;14.65;;
46415;SDS011;32620;51.704;7.822;2023-10-19T04:36:47;25.83;;;16.02;;
46415;SDS011;32620;51.704;7.822;2023-10-19T04:39:13;24.13;;;15.75;;
46415;SDS011;32620;51.704;7.822;2023-10-19T04:41:39;32.88;;;17.77;;
46415;SDS011;32620;51.704;7.822;2023-10-19T04:44:06;29.35;;;18.25;;
46415;SDS011;32620;51.704;7.822;2023-10-19T04:46:33;29.13;;;17.77;;
46415;SDS011;32620;51.704;7.822;2023-10-19T04:48:59;29.13;;;18.20;;
46415;SDS011;32620;51.704;7.822;2023-10-19T04:51:25;29.38;;;17.38;;
46415;SDS011;32620;51.704;7.822;2023-10-19T04:53:50;28.85;;;16.83;;
46415;SDS011;32620;51.704;7.822;2023-10-19T04:56:16;25.23;;;16.45;;
46415;SDS011;32620;51.704;7.822;2023-10-19T04:58:42;24.48;;;15.25;;
46415;SDS011;32620;51.704;7.822;2023-10-19T05:01:07;27.27;;;16.52;;
46415;SDS011;32620;51.704;7.822;2023-10-19T05:03:33;28.08;;;16.85;;
46415;SDS011;32620;51.704;7.822;2023-10-19T05:05:59;25.80;;;16.25;;
46415;SDS011;32620;51.704;7.822;2023-10-19T05:08:26;28.40;;;16.67;;
46415;SDS011;32620;51.704;7.822;2023-10-19T05:10:53;26.50;;;16.70;;
46415;SDS011;32620;51.704;7.822;2023-10-19T05:13:19;29.92;;;16.85;;
46415;SDS011;32620;51.704;7.822;2023-10-19T05:15:47;21.90;;;14.07;;
46415;SDS011;32620;51.704;7.822;2023-10-19T05:18:13;25.33;;;15.02;;
46415;SDS011;32620;51.704;7.822;2023-10-19T05:20:38;23.77;;;14.25;;
46415;SDS011;32620;51.704;7.822;2023-10-19T05:23:06;24.73;;;16.83;;
46415;SDS011;32620;51.704;7.822;2023-10-19T05:25:33;24.83;;;16.52;;
46415;SDS011;32620;51.704;7.822;2023-10-19T05:27:59;21.20;;;15.27;;
46415;SDS011;32620;51.704;7.822;2023-10-19T05:30:25;27.98;;;15.32;;
46415;SDS011;32620;51.704;7.822;2023-10-19T05:32:51;22.92;;;14.77;;
46415;SDS011;32620;51.704;7.822;2023-10-19T05:35:16;19.30;;;13.02;;
46415;SDS011;32620;51.704;7.822;2023-10-19T05:37:48;25.63;;;15.82;;
46415;SDS011;32620;51.704;7.822;2023-10-19T05:40:14;24.27;;;16.02;;
46415;SDS011;32620;51.704;7.822;2023-10-19T05:42:41;28.55;;;17.15;;
46415;SDS011;32620;51.704;7.822;2023-10-19T05:45:06;22.55;;;15.82;;
46415;SDS011;32620;51.704;7.822;2023-10-19T05:47:32;28.90;;;17.02;;
46415;SDS011;32620;51.704;7.822;2023-10-19T05:49:58;28.50;;;17.75;;
46415;SDS011;32620;51.704;7.822;2023-10-19T05:52:23;26.85;;;16.20;;
46415;SDS011;32620;51.704;7.822;2023-10-19T05:54:49;24.55;;;15.07;;
46415;SDS011;32620;51.704;7.822;2023-10-19T05:57:14;24.73;;;14.75;;
46415;SDS011;32620;51.704;7.822;2023-10-19T05:59:40;25.45;;;16.38;;
46415;SDS011;32620;51.704;7.822;2023-10-19T06:02:06;21.83;;;15.18;;
46415;SDS011;32620;51.704;7.822;2023-10-19T06:04:32;28.50;;;15.80;;
46415;SDS011;32620;51.704;7.822;2023-10-19T06:06:58;24.98;;;15.60;;
46415;SDS011;32620;51.704;7.822;2023-10-19T06:09:23;23.95;;;14.05;;
46415;SDS011;32620;51.704;7.822;2023-10-19T06:11:54;17.88;;;12.45;;
46415;SDS011;32620;51.704;7.822;2023-10-19T06:14:20;21.23;;;14.30;;
46415;SDS011;32620;51.704;7.822;2023-10-19T06:16:46;21.95;;;14.27;;
46415;SDS011;32620;51.704;7.822;2023-10-19T06:19:11;17.38;;;12.82;;
46415;SDS011;32620;51.704;7.822;2023-10-19T06:21:37;23.02;;;13.25;;
46415;SDS011;32620;51.704;7.822;2023-10-19T06:24:03;19.42;;;13.10;;
46415;SDS011;32620;51.704;7.822;2023-10-19T06:26:28;25.67;;;15.18;;
46415;SDS011;32620;51.704;7.822;2023-10-19T06:28:54;25.65;;;14.75;;
46415;SDS011;32620;51.704;7.822;2023-10-19T06:31:28;22.20;;;14.00;;
46415;SDS011;32620;51.704;7.822;2023-10-19T06:33:54;23.80;;;13.95;;
46415;SDS011;32620;51.704;7.822;2023-10-19T06:36:19;24.42;;;14.65;;
46415;SDS011;32620;51.704;7.822;2023-10-19T06:38:45;23.48;;;14.23;;
46415;SDS011;32620;51.704;7.822;2023-10-19T06:41:11;22.67;;;14.45;;
46415;SDS011;32620;51.704;7.822;2023-10-19T06:43:38;23.55;;;15.07;;
46415;SDS011;32620;51.704;7.822;2023-10-19T06:46:04;20.95;;;13.65;;
46415;SDS011;32620;51.704;7.822;2023-10-19T06:48:30;24.70;;;14.30;;
46415;SDS011;32620;51.704;7.822;2023-10-19T06:50:57;19.70;;;15.25;;
46415;SDS011;32620;51.704;7.822;2023-10-19T06:53:22;23.05;;;15.05;;
46415;SDS011;32620;51.704;7.822;2023-10-19T06:55:48;31.50;;;16.30;;
46415;SDS011;32620;51.704;7.822;2023-10-19T06:58:13;24.05;;;14.77;;
46415;SDS011;32620;51.704;7.822;2023-10-19T07:00:40;27.23;;;15.40;;
46415;SDS011;32620;51.704;7.822;2023-10-19T07:03:09;21.52;;;13.60;;
46415;SDS011;32620;51.704;7.822;2023-10-19T07:05:35;25.65;;;14.38;;
46415;SDS011;32620;51.704;7.822;2023-10-19T07:08:00;20.80;;;13.65;;
46415;SDS011;32620;51.704;7.822;2023-10-19T07:10:27;23.13;;;14.02;;
46415;SDS011;32620;51.704;7.822;2023-10-19T07:12:53;23.55;;;13.93;;
46415;SDS011;32620;51.704;7.822;2023-10-19T07:15:21;23.63;;;14.85;;
46415;SDS011;32620;51.704;7.822;2023-10-19T07:17:49;25.02;;;14.13;;
46415;SDS011;32620;51.704;7.822;2023-10-19T07:20:18;18.63;;;13.20;;
46415;SDS011;32620;51.704;7.822;2023-10-19T07:23:04;24.75;;;13.93;;
46415;SDS011;32620;51.704;7.822;2023-10-19T07:25:46;20.95;;;13.88;;
46415;SDS011;32620;51.704;7.822;2023-10-19T07:28:14;24.40;;;13.88;;
46415;SDS011;32620;51.704;7.822;2023-10-19T07:30:41;25.08;;;13.82;;
46415;SDS011;32620;51.704;7.822;2023-10-19T07:33:08;23.98;;;14.18;;
46415;SDS011;32620;51.704;7.822;2023-10-19T07:35:35;26.13;;;13.40;;
46415;SDS011;32620;51.704;7.822;2023-10-19T07:38:04;23.92;;;14.07;;
46415;SDS011;32620;51.704;7.822;2023-10-19T07:40:32;21.08;;;11.57;;
46415;SDS011;32620;51.704;7.822;2023-10-19T07:42:58;22.08;;;12.95;;
46415;SDS011;32620;51.704;7.822;2023-10-19T07:45:23;25.42;;;13.20;;
46415;SDS011;32620;51.704;7.822;2023-10-19T07:47:50;21.08;;;12.82;;
46415;SDS011;32620;51.704;7.822;2023-10-19T07:50:16;20.52;;;11.98;;
46415;SDS011;32620;51.704;7.822;2023-10-19T07:52:42;20.42;;;11.30;;
46415;SDS011;32620;51.704;7.822;2023-10-19T07:55:09;24.08;;;12.65;;
46415;SDS011;32620;51.704;7.822;2023-10-19T07:57:35;20.63;;;12.27;;
46415;SDS011;32620;51.704;7.822;2023-10-19T08:00:01;19.83;;;12.15;;
46415;SDS011;32620;51.704;7.822;2023-10-19T08:02:28;21.65;;;11.73;;
46415;SDS011;32620;51.704;7.822;2023-10-19T08:04:55;20.73;;;11.55;;
46415;SDS011;32620;51.704;7.822;2023-10-19T08:07:21;20.67;;;10.90;;
46415;SDS011;32620;51.704;7.822;2023-10-19T08:09:46;16.05;;;10.68;;
46415;SDS011;32620;51.704;7.822;2023-10-19T08:12:12;14.20;;;10.27;;
46415;SDS011;32620;51.704;7.822;2023-10-19T08:14:39;15.50;;;10.40;;
46415;SDS011;32620;51.704;7.822;2023-10-19T08:17:04;13.98;;;10.27;;
46415;SDS011;32620;51.704;7.822;2023-10-19T08:19:30;15.45;;;9.88;;
46415;SDS011;32620;51.704;7.822;2023-10-19T08:21:56;16.00;;;10.98;;
46415;SDS011;32620;51.704;7.822;2023-10-19T08:24:22;15.18;;;10.20;;
46415;SDS011;32620;51.704;7.822;2023-10-19T08:26:48;13.70;;;10.27;;
46415;SDS011;32620;51.704;7.822;2023-10-19T08:29:15;15.52;;;10.00;;
46415;SDS011;32620;51.704;7.822;2023-10-19T08:31:42;18.48;;;11.00;;
46415;SDS011;32620;51.704;7.822;2023-10-19T08:34:09;15.02;;;10.80;;
46415;SDS011;32620;51.704;7.822;2023-10-19T08:36:36;16.17;;;11.23;;
46415;SDS011;32620;51.704;7.822;2023-10-19T08:39:04;13.70;;;10.35;;
46415;SDS011;32620;51.704;7.822;2023-10-19T08:41:32;16.95;;;10.63;;
46415;SDS011;32620;51.704;7.822;2023-10-19T08:44:00;15.25;;;11.40;;
46415;SDS011;32620;51.704;7.822;2023-10-19T08:46:27;14.05;;;10.52;;
46415;SDS011;32620;51.704;7.822;2023-10-19T08:48:53;16.70;;;10.20;;
46415;SDS011;32620;51.704;7.822;2023-10-19T08:51:21;14.15;;;10.32;;
46415;SDS011;32620;51.704;7.822;2023-10-19T08:53:50;15.60;;;10.23;;
46415;SDS011;32620;51.704;7.822;2023-10-19T08:56:18;15.30;;;9.57;;
46415;SDS011;32620;51.704;7.822;2023-10-19T08:58:44;14.70;;;10.30;;
46415;SDS011;32620;51.704;7.822;2023-10-19T09:01:11;13.35;;;9.55;;
46415;SDS011;32620;51.704;7.822;2023-10-19T09:03:37;16.77;;;10.20;;
46415;SDS011;32620;51.704;7.822;2023-10-19T09:06:03;19.15;;;11.02;;
46415;SDS011;32620;51.704;7.822;2023-10-19T09:08:30;14.75;;;9.93;;
46415;SDS011;32620;51.704;7.822;2023-10-19T09:11:05;14.98;;;9.48;;
46415;SDS011;32620;51.704;7.822;2023-10-19T09:13:49;12.63;;;9.10;;
46415;SDS011;32620;51.704;7.822;2023-10-19T09:16:17;18.40;;;9.88;;
46415;SDS011;32620;51.704;7.822;2023-10-19T09:18:45;12.93;;;9.18;;
46415;SDS011;32620;51.704;7.822;2023-10-19T09:21:15;14.55;;;9.00;;
46415;SDS011;32620;51.704;7.822;2023-10-19T09:23:58;11.85;;;7.80;;
46415;SDS011;32620;51.704;7.822;2023-10-19T09:26:24;10.65;;;7.35;;
46415;SDS011;32620;51.704;7.822;2023-10-19T09:28:50;16.27;;;8.00;;
46415;SDS011;32620;51.704;7.822;2023-10-19T09:31:17;15.25;;;8.50;;
46415;SDS011;32620;51.704;7.822;2023-10-19T09:33:44;18.48;;;8.93;;
46415;SDS011;32620;51.704;7.822;2023-10-19T09:36:10;13.32;;;9.10;;
46415;SDS011;32620;51.704;7.822;2023-10-19T09:38:39;12.70;;;8.57;;
46415;SDS011;32620;51.704;7.822;2023-10-19T09:41:08;18.98;;;9.43;;
46415;SDS011;32620;51.704;7.822;2023-10-19T09:43:37;16.17;;;9.88;;
46415;SDS011;32620;51.704;7.822;2023-10-19T09:46:11;12.80;;;10.15;;
46415;SDS011;32620;51.704;7.822;2023-10-19T09:48:39;14.35;;;10.30;;
46415;SDS011;32620;51.704;7.822;2023-10-19T09:51:07;15.50;;;9.70;;
46415;SDS011;32620;51.704;7.822;2023-10-19T09:53:34;14.77;;;8.32;;
46415;SDS011;32620;51.704;7.822;2023-10-19T09:56:01;10.32;;;8.70;;
46415;SDS011;32620;51.704;7.822;2023-10-19T09:58:31;10.63;;;8.18;;
46415;SDS011;32620;51.704;7.822;2023-10-19T10:01:02;14.07;;;8.40;;
46415;SDS011;32620;51.704;7.822;2023-10-19T10:03:59;12.88;;;7.88;;
46415;SDS011;32620;51.704;7.822;2023-10-19T10:06:15;10.90;;;7.75;;
46415;SDS011;32620;51.704;7.822;2023-10-19T10:08:44;12.27;;;7.43;;
46415;SDS011;32620;51.704;7.822;2023-10-19T10:11:26;10.45;;;7.57;;
46415;SDS011;32620;51.704;7.822;2023-10-19T10:13:53;9.63;;;7.47;;
46415;SDS011;32620;51.704;7.822;2023-10-19T10:16:21;10.35;;;7.72;;
46415;SDS011;32620;51.704;7.822;2023-10-19T10:18:54;9.95;;;7.07;;
46415;SDS011;32620;51.704;7.822;2023-10-19T10:21:21;9.90;;;7.35;;
46415;SDS011;32620;51.704;7.822;2023-10-19T10:23:55;12.63;;;7.90;;
46415;SDS011;32620;51.704;7.822;2023-10-19T10:26:24;11.32;;;7.38;;
46415;SDS011;32620;51.704;7.822;2023-10-19T10:29:21;12.68;;;6.80;;
46415;SDS011;32620;51.704;7.822;2023-10-19T10:31:45;12.93;;;6.43;;
46415;SDS011;32620;51.704;7.822;2023-10-19T10:34:41;10.30;;;6.20;;
46415;SDS011;32620;51.704;7.822;2023-10-19T10:37:11;12.68;;;6.05;;
46415;SDS011;32620;51.704;7.822;2023-10-19T10:39:38;7.50;;;6.22;;
46415;SDS011;32620;51.704;7.822;2023-10-19T10:42:07;9.70;;;5.55;;
46415;SDS011;32620;51.704;7.822;2023-10-19T10:44:35;13.00;;;5.63;;
46415;SDS011;32620;51.704;7.822;2023-10-19T10:47:06;9.25;;;5.85;;
46415;SDS011;32620;51.704;7.822;2023-10-19T10:49:45;9.27;;;5.45;;
46415;SDS011;32620;51.704;7.822;2023-10-19T10:52:30;8.30;;;5.35;;
46415;SDS011;32620;51.704;7.822;2023-10-19T10:55:08;9.60;;;5.50;;
46415;SDS011;32620;51.704;7.822;2023-10-19T10:57:36;9.43;;;5.60;;
46415;SDS011;32620;51.704;7.822;2023-10-19T11:00:04;11.25;;;5.40;;
46415;SDS011;32620;51.704;7.822;2023-10-19T11:02:33;10.05;;;5.25;;
46415;SDS011;32620;51.704;7.822;2023-10-19T11:05:00;13.15;;;5.43;;
46415;SDS011;32620;51.704;7.822;2023-10-19T11:07:26;8.20;;;5.45;;
46415;SDS011;32620;51.704;7.822;2023-10-19T11:09:51;9.60;;;5.57;;
46415;SDS011;32620;51.704;7.822;2023-10-19T11:12:17;6.93;;;5.82;;
46415;SDS011;32620;51.704;7.822;2023-10-19T11:14:52;9.38;;;5.97;;
46415;SDS011;32620;51.704;7.822;2023-10-19T11:17:18;10.60;;;5.55;;
46415;SDS011;32620;51.704;7.822;2023-10-19T11:19:44;9.75;;;6.22;;
46415;SDS011;32620;51.704;7.822;2023-10-19T11:22:10;7.80;;;5.78;;
46415;SDS011;32620;51.704;7.822;2023-10-19T11:24:36;9.27;;;4.90;;
46415;SDS011;32620;51.704;7.822;2023-10-19T11:27:05;7.95;;;4.63;;
46415;SDS011;32620;51.704;7.822;2023-10-19T11:29:32;10.98;;;4.95;;
46415;SDS011;32620;51.704;7.822;2023-10-19T11:31:59;11.68;;;5.28;;
46415;SDS011;32620;51.704;7.822;2023-10-19T11:34:25;10.50;;;5.40;;
46415;SDS011;32620;51.704;7.822;2023-10-19T11:36:53;8.23;;;4.72;;
46415;SDS011;32620;51.704;7.822;2023-10-19T11:39:24;7.20;;;4.90;;
46415;SDS011;32620;51.704;7.822;2023-10-19T11:41:50;10.45;;;5.53;;
46415;SDS011;32620;51.704;7.822;2023-10-19T11:44:16;9.40;;;4.72;;
46415;SDS011;32620;51.704;7.822;2023-10-19T11:46:41;7.18;;;4.68;;
46415;SDS011;32620;51.704;7.822;2023-10-19T11:49:07;6.35;;;4.20;;
46415;SDS011;32620;51.704;7.822;2023-10-19T11:51:34;5.47;;;4.28;;
46415;SDS011;32620;51.704;7.822;2023-10-19T11:53:59;6.72;;;4.32;;
46415;SDS011;32620;51.704;7.822;2023-10-19T11:56:26;11.15;;;4.03;;
46415;SDS011;32620;51.704;7.822;2023-10-19T11:58:51;5.50;;;3.90;;
46415;SDS011;32620;51.704;7.822;2023-10-19T12:01:17;7.80;;;4.43;;
46415;SDS011;32620;51.704;7.822;2023-10-19T12:03:43;6.13;;;3.60;;
46415;SDS011;32620;51.704;7.822;2023-10-19T12:06:10;9.45;;;3.63;;
46415;SDS011;32620;51.704;7.822;2023-10-19T12:08:37;9.27;;;2.80;;
46415;SDS011;32620;51.704;7.822;2023-10-19T12:11:05;5.90;;;2.42;;
46415;SDS011;32620;51.704;7.822;2023-10-19T12:13:40;5.03;;;2.53;;
46415;SDS011;32620;51.704;7.822;2023-10-19T12:16:06;8.32;;;2.75;;
46415;SDS011;32620;51.704;7.822;2023-10-19T12:18:32;8.18;;;2.67;;
46415;SDS011;32620;51.704;7.822;2023-10-19T12:20:57;8.77;;;2.75;;
46415;SDS011;32620;51.704;7.822;2023-10-19T12:23:25;7.70;;;3.15;;
46415;SDS011;32620;51.704;7.822;2023-10-19T12:25:50;5.65;;;2.40;;
46415;SDS011;32620;51.704;7.822;2023-10-19T12:28:16;9.70;;;3.22;;
46415;SDS011;32620;51.704;7.822;2023-10-19T12:30:42;6.35;;;2.67;;
46415;SDS011;32620;51.704;7.822;2023-10-19T12:33:08;6.25;;;2.42;;
46415;SDS011;32620;51.704;7.822;2023-10-19T12:35:37;7.95;;;2.72;;
46415;SDS011;32620;51.704;7.822;2023-10-19T12:38:22;11.40;;;2.55;;
46415;SDS011;32620;51.704;7.822;2023-10-19T12:40:48;8.82;;;2.60;;
46415;SDS011;32620;51.704;7.822;2023-10-19T12:43:16;11.02;;;2.63;;
46415;SDS011;32620;51.704;7.822;2023-10-19T12:45:44;9.27;;;2.60;;
46415;SDS011;32620;51.704;7.822;2023-10-19T12:48:15;6.18;;;2.42;;
46415;SDS011;32620;51.704;7.822;2023-10-19T12:50:41;7.65;;;2.40;;
46415;SDS011;32620;51.704;7.822;2023-10-19T12:53:07;12.02;;;2.90;;
46415;SDS011;32620;51.704;7.822;2023-10-19T12:55:34;7.07;;;2.38;;
46415;SDS011;32620;51.704;7.822;2023-10-19T12:58:02;6.10;;;2.28;;
46415;SDS011;32620;51.704;7.822;2023-10-19T13:00:36;8.57;;;2.45;;
46415;SDS011;32620;51.704;7.822;2023-10-19T13:03:06;4.15;;;2.03;;
46415;SDS011;32620;51.704;7.822;2023-10-19T13:05:33;8.18;;;2.55;;
46415;SDS011;32620;51.704;7.822;2023-10-19T13:08:00;7.68;;;2.33;;
46415;SDS011;32620;51.704;7.822;2023-10-19T13:10:28;8.88;;;2.50;;
46415;SDS011;32620;51.704;7.822;2023-10-19T13:12:58;11.23;;;2.28;;
46415;SDS011;32620;51.704;7.822;2023-10-19T13:15:28;9.00;;;2.67;;
46415;SDS011;32620;51.704;7.822;2023-10-19T13:17:56;7.95;;;2.30;;
46415;SDS011;32620;51.704;7.822;2023-10-19T13:20:24;6.65;;;2.50;;
46415;SDS011;32620;51.704;7.822;2023-10-19T13:22:50;6.63;;;2.20;;
46415;SDS011;32620;51.704;7.822;2023-10-19T13:25:16;7.43;;;2.60;;
46415;SDS011;32620;51.704;7.822;2023-10-19T13:27:43;8.60;;;2.33;;
46415;SDS011;32620;51.704;7.822;2023-10-19T13:30:09;6.68;;;2.47;;
46415;SDS011;32620;51.704;7.822;2023-10-19T13:32:37;5.55;;;2.45;;
46415;SDS011;32620;51.704;7.822;2023-10-19T13:35:03;7.45;;;2.20;;
46415;SDS011;32620;51.704;7.822;2023-10-19T13:37:29;5.70;;;2.40;;
46415;SDS011;32620;51.704;7.822;2023-10-19T13:39:55;5.28;;;2.55;;
46415;SDS011;32620;51.704;7.822;2023-10-19T13:42:21;12.30;;;2.88;;
46415;SDS011;32620;51.704;7.822;2023-10-19T13:44:47;6.20;;;2.47;;
46415;SDS011;32620;51.704;7.822;2023-10-19T13:47:12;7.05;;;2.10;;
46415;SDS011;32620;51.704;7.822;2023-10-19T13:49:38;9.93;;;2.50;;
46415;SDS011;32620;51.704;7.822;2023-10-19T13:52:04;8.80;;;3.15;;
46415;SDS011;32620;51.704;7.822;2023-10-19T13:54:30;5.80;;;2.45;;
46415;SDS011;32620;51.704;7.822;2023-10-19T13:56:55;6.07;;;2.90;;
46415;SDS011;32620;51.704;7.822;2023-10-19T13:59:21;9.45;;;2.80;;
46415;SDS011;32620;51.704;7.822;2023-10-19T14:01:48;8.02;;;2.63;;
46415;SDS011;32620;51.704;7.822;2023-10-19T14:04:15;6.15;;;2.53;;
46415;SDS011;32620;51.704;7.822;2023-10-19T14:06:41;6.75;;;2.50;;
46415;SDS011;32620;51.704;7.822;2023-10-19T14:09:08;6.95;;;2.75;;
46415;SDS011;32620;51.704;7.822;2023-10-19T14:11:37;9.50;;;2.95;;
46415;SDS011;32620;51.704;7.822;2023-10-19T14:14:03;8.32;;;3.33;;
46415;SDS011;32620;51.704;7.822;2023-10-19T14:16:29;10.70;;;2.90;;
46415;SDS011;32620;51.704;7.822;2023-10-19T14:18:56;7.25;;;3.33;;
46415;SDS011;32620;51.704;7.822;2023-10-19T14:21:22;10.70;;;2.90;;
46415;SDS011;32620;51.704;7.822;2023-10-19T14:23:51;8.23;;;3.00;;
46415;SDS011;32620;51.704;7.822;2023-10-19T14:26:18;7.32;;;2.58;;
46415;SDS011;32620;51.704;7.822;2023-10-19T14:28:44;6.47;;;2.33;;
46415;SDS011;32620;51.704;7.822;2023-10-19T14:31:09;9.70;;;2.80;;
46415;SDS011;32620;51.704;7.822;2023-10-19T14:33:36;9.82;;;2.40;;
46415;SDS011;32620;51.704;7.822;2023-10-19T14:36:03;6.30;;;2.60;;
46415;SDS011;32620;51.704;7.822;2023-10-19T14:38:29;8.23;;;3.17;;
46415;SDS011;32620;51.704;7.822;2023-10-19T14:40:55;6.28;;;2.65;;
46415;SDS011;32620;51.704;7.822;2023-10-19T14:43:20;10.05;;;3.13;;
46415;SDS011;32620;51.704;7.822;2023-10-19T14:45:46;9.23;;;3.00;;